Time;durP1;ratioP1;P1;durP2;ratioP2;P2;SDS_P1;SDS_P2;PMS_P1;PMS_P2;Temp;Humidity;BMP_temperature;BMP_pressure;BME280_temperature;BME280_humidity;BME280_pressure;Samples;Min_cycle;Max_cycle;Signal;HPM_P1;HPM_P2
2021/03/02 00:00:24;;;;;;;115.13;53.42;;;;;;;-0.71;nan;100822.78;2080787;28;20237;-72
2021/03/02 00:01:26;;;;;;;116.57;53.78;;;;;;;-0.70;nan;100840.16;2080461;28;20232;-72
2021/03/02 00:02:29;;;;;;;125.25;53.47;;;;;;;-0.72;nan;100823.78;2080466;28;20230;-72
2021/03/02 00:03:34;;;;;;;133.23;57.17;;;;;;;-0.59;nan;100844.97;2080300;28;20229;-72
2021/03/02 00:04:36;;;;;;;128.27;55.80;;;;;;;-0.57;nan;100842.16;2080437;28;20277;-72
2021/03/02 00:05:38;;;;;;;138.50;58.65;;;;;;;-0.60;nan;100837.28;2078881;28;20223;-72
2021/03/02 00:06:41;;;;;;;126.78;54.38;;;;;;;-0.59;nan;100842.34;2080158;28;20227;-72
2021/03/02 00:07:43;;;;;;;142.77;58.08;;;;;;;-0.60;nan;100840.72;2080539;28;20590;-72
2021/03/02 00:08:46;;;;;;;135.20;58.50;;;;;;;-0.61;nan;100846.13;2080265;28;20219;-71
2021/03/02 00:09:47;;;;;;;114.13;51.25;;;;;;;-0.66;nan;100846.69;2080349;28;20219;-72
2021/03/02 00:10:50;;;;;;;132.80;56.42;;;;;;;-0.72;nan;100839.50;2080381;28;20314;-72
2021/03/02 00:11:52;;;;;;;126.47;56.25;;;;;;;-0.76;nan;100843.50;2079735;28;20225;-71
2021/03/02 00:12:55;;;;;;;139.25;58.10;;;;;;;-0.79;nan;100833.34;2080626;28;20223;-71
2021/03/02 00:13:58;;;;;;;131.13;57.22;;;;;;;-0.82;nan;100844.19;2081162;28;20231;-73
2021/03/02 00:15:00;;;;;;;136.38;57.85;;;;;;;-0.85;nan;100841.94;2096613;28;20225;-73
2021/03/02 00:16:03;;;;;;;127.70;57.67;;;;;;;-0.87;nan;100836.88;2096606;28;20210;-74
2021/03/02 00:17:20;;;;;;;134.65;59.85;;;;;;;-0.87;nan;100836.03;2081057;28;20243;-71
2021/03/02 00:18:25;;;;;;;148.73;60.92;;;;;;;-0.86;nan;100830.66;2080819;28;20230;-71
2021/03/02 00:19:34;;;;;;;146.75;57.78;;;;;;;-0.84;nan;100834.91;2078753;28;20289;-72
2021/03/02 00:20:36;;;;;;;130.13;56.38;;;;;;;-0.86;nan;100828.03;2080963;28;20318;-70
2021/03/02 00:21:41;;;;;;;138.98;58.85;;;;;;;-0.90;nan;100831.16;2080772;28;20318;-72
2021/03/02 00:22:53;;;;;;;125.32;52.70;;;;;;;-0.86;nan;100825.41;2080898;28;20226;-71
2021/03/02 00:23:59;;;;;;;116.80;52.83;;;;;;;-0.79;nan;100825.50;2080903;28;20223;-74
2021/03/02 00:25:05;;;;;;;117.88;52.78;;;;;;;-0.87;nan;100822.94;2080907;28;20325;-72
2021/03/02 00:26:08;;;;;;;118.78;51.40;;;;;;;-0.95;nan;100809.94;2080956;28;20238;-71
2021/03/02 00:27:11;;;;;;;125.53;52.40;;;;;;;-0.92;nan;100822.69;2080717;28;20303;-72
2021/03/02 00:28:14;;;;;;;124.30;51.45;;;;;;;-0.97;nan;100827.63;2081000;28;20231;-72
2021/03/02 00:29:17;;;;;;;119.10;52.35;;;;;;;-0.97;nan;100823.19;2080955;28;20258;-71
2021/03/02 00:30:19;;;;;;;113.75;52.08;;;;;;;-0.99;nan;100816.50;2081067;28;20724;-72
2021/03/02 00:31:21;;;;;;;113.90;50.92;;;;;;;-0.99;nan;100821.75;2081083;28;20228;-72
2021/03/02 00:32:24;;;;;;;126.90;53.97;;;;;;;-1.01;nan;100816.69;2080578;28;20587;-72
2021/03/02 00:33:26;;;;;;;120.70;52.67;;;;;;;-1.06;nan;100815.59;2079769;28;20227;-71
2021/03/02 00:34:29;;;;;;;120.20;53.47;;;;;;;-1.09;nan;100816.75;2080362;28;20281;-71
2021/03/02 00:35:31;;;;;;;121.93;51.70;;;;;;;-1.05;nan;100823.25;2080473;28;20227;-73
2021/03/02 00:36:34;;;;;;;123.63;52.97;;;;;;;-1.03;nan;100823.13;2072446;28;20224;-72
2021/03/02 00:37:36;;;;;;;132.30;54.92;;;;;;;-1.16;nan;100808.78;2080003;28;20712;-72
2021/03/02 00:38:38;;;;;;;119.43;52.90;;;;;;;-1.14;nan;100821.69;2078479;28;20219;-73
2021/03/02 00:39:40;;;;;;;121.93;53.88;;;;;;;-1.20;nan;100809.34;2081169;28;20302;-72
2021/03/02 00:40:43;;;;;;;125.35;52.55;;;;;;;-1.20;nan;100815.38;2080818;28;20235;-72
2021/03/02 00:41:45;;;;;;;123.95;52.40;;;;;;;-1.19;nan;100818.81;2080729;28;20306;-73
2021/03/02 00:42:46;;;;;;;119.20;52.33;;;;;;;-1.25;nan;100812.47;2081135;28;20239;-73
2021/03/02 00:43:52;;;;;;;124.72;54.08;;;;;;;-1.29;nan;100811.19;2080370;28;20590;-73
2021/03/02 00:44:54;;;;;;;121.03;53.53;;;;;;;-1.26;nan;100805.59;2079990;28;20273;-73
2021/03/02 00:45:56;;;;;;;122.07;54.10;;;;;;;-1.24;nan;100808.84;2080782;28;20269;-73
2021/03/02 00:46:59;;;;;;;136.27;53.92;;;;;;;-1.20;nan;100810.16;2080259;28;20231;-73
2021/03/02 00:48:01;;;;;;;123.85;55.03;;;;;;;-1.16;nan;100800.94;2072242;28;20224;-73
2021/03/02 00:49:02;;;;;;;122.55;54.03;;;;;;;-1.04;nan;100814.44;2080067;28;20619;-73
2021/03/02 00:50:07;;;;;;;149.77;59.75;;;;;;;-1.07;nan;100819.19;2080435;28;20222;-71
2021/03/02 00:51:09;;;;;;;137.88;58.95;;;;;;;-1.09;nan;100815.94;2079874;28;20233;-72
2021/03/02 00:52:11;;;;;;;147.55;58.63;;;;;;;-1.10;nan;100819.56;2079909;28;20645;-72
2021/03/02 00:53:12;;;;;;;135.05;57.88;;;;;;;-1.15;nan;100813.03;2080372;28;20357;-71
2021/03/02 00:54:15;;;;;;;150.10;59.65;;;;;;;-1.14;nan;100821.69;2088272;28;20226;-71
2021/03/02 00:55:17;;;;;;;143.70;61.65;;;;;;;-1.02;nan;100816.88;2088093;28;20214;-71
2021/03/02 00:56:20;;;;;;;141.82;60.15;;;;;;;-0.94;nan;100822.06;2071921;28;20637;-72
2021/03/02 00:57:22;;;;;;;162.02;61.53;;;;;;;-1.01;nan;100814.06;2088271;28;20255;-72
2021/03/02 00:58:24;;;;;;;153.98;61.72;;;;;;;-1.10;nan;100801.22;2087808;28;20261;-72
2021/03/02 00:59:26;;;;;;;154.32;61.50;;;;;;;-0.92;nan;100817.44;2071922;28;20243;-72
2021/03/02 01:00:31;;;;;;;141.48;62.35;;;;;;;-0.88;nan;100810.84;2079926;28;20752;-72
2021/03/02 01:01:37;;;;;;;148.07;62.15;;;;;;;-0.83;nan;100821.63;2080011;28;20219;-73
2021/03/02 01:02:41;;;;;;;152.23;61.90;;;;;;;-0.88;nan;100818.69;2071888;28;20231;-73
2021/03/02 01:03:44;;;;;;;150.15;62.20;;;;;;;-0.95;nan;100815.19;2072481;28;20219;-73
2021/03/02 01:04:50;;;;;;;150.27;66.97;;;;;;;-0.94;nan;100819.44;2072308;28;20230;-72
2021/03/02 01:05:52;;;;;;;150.05;63.65;;;;;;;-0.87;nan;100820.31;2080092;28;20223;-73
2021/03/02 01:07:00;;;;;;;143.13;63.47;;;;;;;-0.94;nan;100815.00;2093880;28;20304;-73
2021/03/02 01:08:05;;;;;;;148.32;64.53;;;;;;;-0.91;nan;100804.16;2087658;28;20218;-72
2021/03/02 01:09:11;;;;;;;140.10;59.53;;;;;;;-0.79;nan;100812.38;2070232;28;20236;-71
2021/03/02 01:10:19;;;;;;;154.95;63.40;;;;;;;-0.81;nan;100822.25;2072384;28;20219;-72
2021/03/02 01:11:26;;;;;;;143.80;61.75;;;;;;;-0.85;nan;100813.13;2077479;28;20266;-72
2021/03/02 01:12:29;;;;;;;151.68;62.03;;;;;;;-0.89;nan;100811.84;2079818;28;20219;-72
2021/03/02 01:13:35;;;;;;;152.77;63.15;;;;;;;-0.95;nan;100805.53;2079924;28;20306;-74
2021/03/02 01:14:36;;;;;;;146.63;61.47;;;;;;;-0.87;nan;100808.06;2079847;28;20230;-73
2021/03/02 01:15:39;;;;;;;151.75;63.70;;;;;;;-0.89;nan;100803.97;2079448;28;20230;-73
2021/03/02 01:16:40;;;;;;;145.27;62.38;;;;;;;-0.86;nan;100807.06;2079631;28;20228;-73
2021/03/02 01:17:43;;;;;;;155.55;65.35;;;;;;;-0.86;nan;100807.06;2079781;28;22219;-73
2021/03/02 01:18:45;;;;;;;150.70;63.40;;;;;;;-0.86;nan;100807.06;2096140;28;20297;-72
2021/03/02 01:19:47;;;;;;;149.15;63.42;;;;;;;-0.85;nan;100800.03;2095921;28;20225;-72
2021/03/02 01:20:49;;;;;;;155.23;61.80;;;;;;;-0.90;nan;100797.91;2079590;28;20241;-71
2021/03/02 01:21:51;;;;;;;162.43;64.95;;;;;;;-0.90;nan;100804.97;2080026;28;20273;-71
2021/03/02 01:22:53;;;;;;;149.05;61.30;;;;;;;-0.91;nan;100795.50;2079462;28;20258;-72
2021/03/02 01:23:55;;;;;;;157.30;64.22;;;;;;;-0.94;nan;100796.66;2080569;28;20224;-71
2021/03/02 01:24:57;;;;;;;152.43;63.30;;;;;;;-0.90;nan;100794.50;2080095;28;20223;-71
2021/03/02 01:25:59;;;;;;;145.60;63.50;;;;;;;-0.89;nan;100793.50;2071983;28;20273;-72
2021/03/02 01:27:01;;;;;;;155.75;64.80;;;;;;;-0.97;nan;100770.00;2079957;28;20226;-73
2021/03/02 01:28:03;;;;;;;150.18;64.03;;;;;;;-0.92;nan;100784.19;2080554;28;20687;-72
2021/03/02 01:29:05;;;;;;;147.30;63.97;;;;;;;-0.92;nan;100780.75;2080566;28;20223;-71
2021/03/02 01:30:08;;;;;;;154.70;65.00;;;;;;;-0.95;nan;100786.38;2080544;28;20230;-72
2021/03/02 01:31:10;;;;;;;157.57;64.78;;;;;;;-0.98;nan;100784.09;2079209;28;20258;-72
2021/03/02 01:32:12;;;;;;;150.13;66.85;;;;;;;-0.94;nan;100785.38;2079735;28;20648;-72
2021/03/02 01:33:14;;;;;;;147.18;64.93;;;;;;;-0.93;nan;100787.81;2079663;28;20318;-72
2021/03/02 01:34:16;;;;;;;154.45;64.63;;;;;;;-0.93;nan;100785.19;2079736;28;20678;-73
2021/03/02 01:35:18;;;;;;;152.55;64.07;;;;;;;-0.91;nan;100790.25;2079854;28;20254;-72
2021/03/02 01:36:21;;;;;;;147.15;63.42;;;;;;;-0.97;nan;100777.84;2079460;28;20223;-72
2021/03/02 01:37:23;;;;;;;158.57;67.13;;;;;;;-1.03;nan;100779.41;2079008;28;20223;-73
2021/03/02 01:38:26;;;;;;;168.35;64.38;;;;;;;-1.14;nan;100762.28;2080531;28;20588;-72
2021/03/02 01:39:28;;;;;;;157.27;65.78;;;;;;;-1.10;nan;100786.34;2079658;28;20227;-72
2021/03/02 01:40:30;;;;;;;146.25;62.67;;;;;;;-1.11;nan;100786.50;2079824;28;20235;-72
2021/03/02 01:41:32;;;;;;;150.07;64.82;;;;;;;-1.15;nan;100776.38;2080397;28;20234;-71
2021/03/02 01:42:34;;;;;;;146.65;64.25;;;;;;;-1.14;nan;100778.00;2080446;28;20322;-71
2021/03/02 01:43:36;;;;;;;145.65;63.20;;;;;;;-1.17;nan;100770.50;2080542;28;20227;-72
2021/03/02 01:44:38;;;;;;;155.15;64.03;;;;;;;-1.19;nan;100764.63;2079965;28;20573;-72
2021/03/02 01:45:40;;;;;;;152.48;64.20;;;;;;;-1.18;nan;100774.13;2080411;28;20234;-72
2021/03/02 01:46:43;;;;;;;160.30;62.22;;;;;;;-1.22;nan;100779.88;2080394;28;20219;-72
2021/03/02 01:47:46;;;;;;;158.43;63.65;;;;;;;-1.26;nan;100770.75;2095966;28;20217;-71
2021/03/02 01:48:48;;;;;;;150.68;64.35;;;;;;;-1.29;nan;100764.06;2087904;28;20724;-72
2021/03/02 01:49:50;;;;;;;146.38;61.95;;;;;;;-1.28;nan;100764.88;2071977;28;20220;-72
2021/03/02 01:50:52;;;;;;;154.73;62.58;;;;;;;-1.29;nan;100769.31;2079886;28;20224;-71
2021/03/02 01:51:54;;;;;;;146.40;60.88;;;;;;;-1.37;nan;100755.47;2080005;28;20268;-71
2021/03/02 01:52:57;;;;;;;156.68;62.75;;;;;;;-1.32;nan;100767.03;2079914;28;20227;-71
2021/03/02 01:53:58;;;;;;;163.18;64.43;;;;;;;-1.34;nan;100766.41;2079886;28;20729;-72
2021/03/02 01:55:01;;;;;;;157.52;66.13;;;;;;;-1.34;nan;100758.53;2079670;28;20219;-72
2021/03/02 01:56:03;;;;;;;158.70;63.42;;;;;;;-1.31;nan;100766.03;2080438;28;20223;-71
2021/03/02 01:57:05;;;;;;;158.13;65.47;;;;;;;-1.40;nan;100761.84;2079417;28;20310;-72
2021/03/02 01:58:07;;;;;;;156.25;64.25;;;;;;;-1.42;nan;100748.13;2079607;28;20215;-73
2021/03/02 01:59:09;;;;;;;152.63;64.63;;;;;;;-1.36;nan;100760.53;2080141;28;20258;-71
2021/03/02 02:00:20;;;;;;;156.45;63.78;;;;;;;-1.38;nan;100757.28;2095850;28;20226;-72
2021/03/02 02:01:22;;;;;;;152.95;64.72;;;;;;;-1.35;nan;100756.09;2093746;28;20221;-72
2021/03/02 02:02:28;;;;;;;153.82;64.32;;;;;;;-1.39;nan;100760.88;2080021;28;20235;-73
2021/03/02 02:03:39;;;;;;;164.00;66.10;;;;;;;-1.45;nan;100754.53;2080469;28;20693;-72
2021/03/02 02:04:44;;;;;;;170.63;66.78;;;;;;;-1.47;nan;100746.06;2079994;28;20219;-72
2021/03/02 02:05:48;;;;;;;150.23;64.25;;;;;;;-1.48;nan;100748.81;2080462;28;20289;-73
2021/03/02 02:06:54;;;;;;;156.07;66.20;;;;;;;-1.50;nan;100742.97;2079580;28;20242;-72
2021/03/02 02:08:01;;;;;;;170.25;67.30;;;;;;;-1.51;nan;100744.75;2071567;28;20285;-72
2021/03/02 02:09:07;;;;;;;166.32;65.10;;;;;;;-1.54;nan;100750.38;2079843;28;20280;-71
2021/03/02 02:10:13;;;;;;;153.60;63.33;;;;;;;-1.54;nan;100746.94;2079038;28;20231;-73
2021/03/02 02:11:27;;;;;;;159.90;65.75;;;;;;;-1.60;nan;100739.78;2071946;28;20251;-72
2021/03/02 02:12:34;;;;;;;159.13;62.65;;;;;;;-1.63;nan;100737.50;2072788;28;20690;-72
2021/03/02 02:13:41;;;;;;;168.38;66.60;;;;;;;-1.64;nan;100746.34;2071660;28;20250;-73
2021/03/02 02:14:46;;;;;;;161.18;65.75;;;;;;;-1.65;nan;100736.84;2071381;28;20713;-73
2021/03/02 02:15:48;;;;;;;150.90;63.90;;;;;;;-1.67;nan;100739.66;2072255;28;20223;-73
2021/03/02 02:16:53;;;;;;;153.57;66.03;;;;;;;-1.65;nan;100737.69;2079696;28;20637;-72
2021/03/02 02:17:58;;;;;;;149.50;65.25;;;;;;;-1.71;nan;100735.78;2078878;28;20290;-72
2021/03/02 02:19:00;;;;;;;151.65;66.15;;;;;;;-1.67;nan;100736.22;2079676;28;20305;-72
2021/03/02 02:20:03;;;;;;;153.13;65.85;;;;;;;-1.69;nan;100725.94;2095962;28;20221;-72
2021/03/02 02:21:16;;;;;;;161.60;64.82;;;;;;;-1.72;nan;100732.34;2095327;28;20789;-72
2021/03/02 02:22:30;;;;;;;164.00;64.57;;;;;;;-1.66;nan;100735.22;2080169;28;20644;-72
2021/03/02 02:23:47;;;;;;;153.40;63.28;;;;;;;-1.58;nan;100737.78;2078868;28;20230;-73
2021/03/02 02:25:01;;;;;;;156.15;64.72;;;;;;;-1.61;nan;100733.72;2079418;28;20218;-72
2021/03/02 02:26:09;;;;;;;167.32;65.93;;;;;;;-1.66;nan;100727.38;2077222;28;20654;-70
2021/03/02 02:27:12;;;;;;;163.82;64.93;;;;;;;-1.66;nan;100732.59;2079318;28;20282;-72
2021/03/02 02:28:15;;;;;;;164.85;65.55;;;;;;;-1.69;nan;100725.94;2079516;28;20731;-72
2021/03/02 02:29:19;;;;;;;165.43;67.63;;;;;;;-1.70;nan;100734.78;2079396;28;20246;-73
2021/03/02 02:30:21;;;;;;;163.63;65.38;;;;;;;-1.75;nan;100721.38;2079669;28;20788;-73
2021/03/02 02:31:25;;;;;;;171.40;67.40;;;;;;;-1.72;nan;100731.53;2079046;28;20223;-73
2021/03/02 02:32:28;;;;;;;164.27;66.63;;;;;;;-1.71;nan;100723.50;2080256;28;20234;-73
2021/03/02 02:33:33;;;;;;;159.07;65.47;;;;;;;-1.68;nan;100738.03;2080298;28;20239;-72
2021/03/02 02:34:37;;;;;;;163.18;68.35;;;;;;;-1.72;nan;100724.50;2080277;28;20219;-73
2021/03/02 02:35:40;;;;;;;162.13;65.97;;;;;;;-1.68;nan;100729.38;2072853;28;20576;-72
2021/03/02 02:36:43;;;;;;;162.52;69.00;;;;;;;-1.73;nan;100724.66;2072796;28;20311;-72
2021/03/02 02:37:46;;;;;;;169.48;69.57;;;;;;;-1.73;nan;100735.94;2065134;28;20371;-72
2021/03/02 02:38:50;;;;;;;175.45;66.90;;;;;;;-1.76;nan;100725.00;2073005;28;20243;-72
2021/03/02 02:39:53;;;;;;;156.68;67.30;;;;;;;-1.74;nan;100738.72;2073702;28;20293;-73
2021/03/02 02:40:56;;;;;;;171.60;68.68;;;;;;;-1.67;nan;100738.84;2071916;28;20232;-74
2021/03/02 02:41:58;;;;;;;175.57;69.07;;;;;;;-1.71;nan;100733.16;2072823;28;20249;-72
2021/03/02 02:43:02;;;;;;;171.85;70.10;;;;;;;-1.76;nan;100733.66;2073609;28;20306;-73
2021/03/02 02:44:04;;;;;;;167.40;68.80;;;;;;;-1.77;nan;100732.03;2073685;28;20306;-73
2021/03/02 02:45:08;;;;;;;169.35;70.32;;;;;;;-1.76;nan;100732.84;2073748;28;20226;-73
2021/03/02 02:46:10;;;;;;;179.00;71.22;;;;;;;-1.80;nan;100732.41;2073234;28;20714;-73
2021/03/02 02:47:12;;;;;;;169.23;66.68;;;;;;;-1.84;nan;100728.47;2073614;28;20231;-72
2021/03/02 02:48:15;;;;;;;173.55;70.05;;;;;;;-1.81;nan;100727.34;2073107;28;20570;-73
2021/03/02 02:49:18;;;;;;;169.20;68.65;;;;;;;-1.81;nan;100725.53;2064683;28;20271;-73
2021/03/02 02:50:20;;;;;;;168.73;69.85;;;;;;;-1.83;nan;100724.88;2072860;28;20238;-73
2021/03/02 02:51:22;;;;;;;173.85;69.38;;;;;;;-1.89;nan;100722.16;2079032;28;20223;-72
2021/03/02 02:52:24;;;;;;;169.30;68.07;;;;;;;-1.88;nan;100721.97;2078494;28;20277;-73
2021/03/02 02:53:26;;;;;;;171.68;72.60;;;;;;;-1.83;nan;100730.09;2081695;28;20686;-73
2021/03/02 02:54:28;;;;;;;174.95;69.80;;;;;;;-1.87;nan;100713.16;2081786;28;20238;-73
2021/03/02 02:55:35;;;;;;;179.52;70.32;;;;;;;-1.84;nan;100727.66;2081656;28;20281;-74
2021/03/02 02:56:38;;;;;;;184.95;70.75;;;;;;;-1.84;nan;100718.03;2081811;28;20306;-73
2021/03/02 02:57:44;;;;;;;172.00;68.75;;;;;;;-1.83;nan;100724.88;2081333;28;20278;-73
2021/03/02 02:58:58;;;;;;;180.80;70.53;;;;;;;-1.82;nan;100718.69;2081719;28;20228;-73
2021/03/02 03:00:02;;;;;;;167.07;66.45;;;;;;;-1.93;nan;100703.38;2081262;28;20321;-72
2021/03/02 03:01:04;;;;;;;175.43;66.57;;;;;;;-1.80;nan;100723.72;2081381;28;20270;-73
2021/03/02 03:02:10;;;;;;;176.02;69.53;;;;;;;-1.82;nan;100708.22;2081270;28;20230;-72
2021/03/02 03:03:15;;;;;;;167.52;68.85;;;;;;;-1.81;nan;100715.06;2080711;28;20219;-73
2021/03/02 03:04:20;;;;;;;179.05;72.88;;;;;;;-1.85;nan;100705.94;2081037;28;20578;-72
2021/03/02 03:05:23;;;;;;;166.82;67.78;;;;;;;-1.78;nan;100717.34;2080711;28;20231;-72
2021/03/02 03:06:27;;;;;;;167.20;69.40;;;;;;;-1.71;nan;100715.66;2081712;28;20243;-72
2021/03/02 03:07:32;;;;;;;174.32;70.82;;;;;;;-1.71;nan;100717.44;2080894;28;20618;-72
2021/03/02 03:08:34;;;;;;;169.98;67.03;;;;;;;-1.72;nan;100721.88;2080970;28;20219;-73
2021/03/02 03:09:37;;;;;;;176.82;71.07;;;;;;;-1.69;nan;100722.50;2081509;28;20251;-73
2021/03/02 03:10:39;;;;;;;177.73;71.13;;;;;;;-1.71;nan;100720.88;2080194;28;20251;-72
2021/03/02 03:11:43;;;;;;;183.73;71.78;;;;;;;-1.82;nan;100705.59;2080944;28;20712;-73
2021/03/02 03:12:47;;;;;;;182.52;73.20;;;;;;;-1.76;nan;100719.75;2080738;28;20226;-73
2021/03/02 03:13:52;;;;;;;197.80;74.22;;;;;;;-1.59;nan;100720.47;2080740;28;20288;-73
2021/03/02 03:14:57;;;;;;;182.98;72.88;;;;;;;-1.62;nan;100720.81;2081174;28;20235;-73
2021/03/02 03:15:59;;;;;;;199.02;76.43;;;;;;;-1.64;nan;100721.00;2097278;28;20222;-73
2021/03/02 03:17:02;;;;;;;206.35;79.95;;;;;;;-1.62;nan;100728.66;2096821;28;20218;-72
2021/03/02 03:18:06;;;;;;;200.63;80.07;;;;;;;-1.60;nan;100721.47;2081506;28;20226;-72
2021/03/02 03:19:09;;;;;;;198.93;76.55;;;;;;;-1.71;nan;100714.84;2080969;28;20251;-73
2021/03/02 03:20:12;;;;;;;217.40;83.15;;;;;;;-1.62;nan;100720.81;2081593;28;20556;-72
2021/03/02 03:21:14;;;;;;;237.52;88.28;;;;;;;-1.63;nan;100725.25;2080614;28;20232;-72
2021/03/02 03:22:17;;;;;;;217.25;84.00;;;;;;;-1.62;nan;100737.34;2080784;28;20626;-72
2021/03/02 03:23:19;;;;;;;260.20;89.43;;;;;;;-1.61;nan;100732.91;2081602;28;20238;-73
2021/03/02 03:24:22;;;;;;;233.63;86.07;;;;;;;-1.65;nan;100727.22;2080570;28;20773;-73
2021/03/02 03:25:24;;;;;;;276.77;88.60;;;;;;;-1.62;nan;100733.91;2080334;28;20227;-73
2021/03/02 03:26:31;;;;;;;321.13;98.18;;;;;;;-1.64;nan;100738.50;2081437;28;20227;-73
2021/03/02 03:27:34;;;;;;;309.05;94.95;;;;;;;-1.55;nan;100742.69;2081417;28;20226;-73
2021/03/02 03:28:37;;;;;;;331.98;97.55;;;;;;;-1.61;nan;100740.75;2081489;28;20219;-72
2021/03/02 03:29:42;;;;;;;317.13;94.93;;;;;;;-1.64;nan;100739.31;2096817;28;20255;-73
2021/03/02 03:30:44;;;;;;;323.17;98.25;;;;;;;-1.65;nan;100732.47;2096067;28;20226;-73
2021/03/02 03:31:46;;;;;;;316.92;96.72;;;;;;;-1.67;nan;100733.59;2081400;28;20215;-73
2021/03/02 03:32:53;;;;;;;281.63;94.78;;;;;;;-1.72;nan;100742.00;2081353;28;20238;-72
2021/03/02 03:33:57;;;;;;;364.52;105.75;;;;;;;-1.72;nan;100732.34;2080915;28;20216;-73
2021/03/02 03:35:00;;;;;;;335.25;97.90;;;;;;;-1.68;nan;100732.78;2081178;28;20225;-73
2021/03/02 03:36:03;;;;;;;310.33;98.70;;;;;;;-1.70;nan;100734.78;2097236;28;20612;-72
2021/03/02 03:37:04;;;;;;;333.65;98.60;;;;;;;-1.68;nan;100737.22;2096633;28;20724;-72
2021/03/02 03:38:07;;;;;;;314.42;95.32;;;;;;;-1.68;nan;100739.84;2081697;28;20278;-72
2021/03/02 03:39:09;;;;;;;369.50;104.07;;;;;;;-1.68;nan;100743.25;2079185;28;20231;-73
2021/03/02 03:40:13;;;;;;;347.17;101.45;;;;;;;-1.66;nan;100737.84;2081470;28;20277;-73
2021/03/02 03:41:14;;;;;;;303.25;97.90;;;;;;;-1.67;nan;100737.03;2081028;28;20696;-73
2021/03/02 03:42:17;;;;;;;328.20;100.22;;;;;;;-1.66;nan;100737.84;2081491;28;20269;-73
2021/03/02 03:43:19;;;;;;;307.00;93.32;;;;;;;-1.55;nan;100729.59;2081285;28;20265;-73
2021/03/02 03:44:21;;;;;;;328.20;99.80;;;;;;;-1.53;nan;100735.47;2080532;28;20223;-72
2021/03/02 03:45:24;;;;;;;314.75;97.30;;;;;;;-1.44;nan;100734.41;2080311;28;20756;-73
2021/03/02 03:46:26;;;;;;;344.85;98.53;;;;;;;-1.45;nan;100731.00;2096760;28;20230;-72
2021/03/02 03:47:28;;;;;;;342.85;99.22;;;;;;;-1.47;nan;100724.31;2096186;28;20616;-73
2021/03/02 03:48:30;;;;;;;346.15;98.22;;;;;;;-1.37;nan;100734.53;2081424;28;20223;-73
2021/03/02 03:49:32;;;;;;;371.80;102.60;;;;;;;-1.33;nan;100739.22;2081260;28;20219;-72
2021/03/02 03:50:35;;;;;;;334.75;100.93;;;;;;;-1.27;nan;100733.28;2081244;28;20290;-72
2021/03/02 03:51:38;;;;;;;357.67;97.30;;;;;;;-1.25;nan;100741.78;2081362;28;20739;-72
2021/03/02 03:52:44;;;;;;;373.77;104.20;;;;;;;-1.32;nan;100721.72;2081001;28;20284;-72
2021/03/02 03:53:45;;;;;;;367.60;103.38;;;;;;;-1.15;nan;100733.66;2081237;28;20674;-72
2021/03/02 03:54:49;;;;;;;386.23;104.43;;;;;;;-1.24;nan;100730.31;2081533;28;20226;-73
2021/03/02 03:55:52;;;;;;;336.92;100.15;;;;;;;-1.22;nan;100727.50;2081370;28;20577;-72
2021/03/02 03:56:54;;;;;;;356.65;103.68;;;;;;;-1.22;nan;100730.94;2080316;28;20667;-72
2021/03/02 03:57:55;;;;;;;354.65;100.45;;;;;;;-1.21;nan;100727.34;2080327;28;20617;-72
2021/03/02 03:58:58;;;;;;;372.52;103.95;;;;;;;-1.18;nan;100734.84;2081242;28;20232;-72
2021/03/02 04:00:00;;;;;;;334.20;100.95;;;;;;;-1.13;nan;100731.66;2081242;28;20228;-72
2021/03/02 04:01:05;;;;;;;336.83;100.38;;;;;;;-1.17;nan;100731.22;2081146;28;20234;-72
2021/03/02 04:02:07;;;;;;;435.35;106.88;;;;;;;-1.15;nan;100731.84;2081327;28;20215;-72
2021/03/02 04:03:10;;;;;;;411.50;104.03;;;;;;;-1.11;nan;100734.13;2080945;28;20705;-72
2021/03/02 04:04:11;;;;;;;369.77;105.75;;;;;;;-1.18;nan;100732.22;2081090;28;20724;-73
2021/03/02 04:05:14;;;;;;;391.92;105.32;;;;;;;-1.11;nan;100734.94;2081138;28;20235;-71
2021/03/02 04:06:17;;;;;;;354.33;102.63;;;;;;;-1.11;nan;100727.09;2081178;28;20273;-72
2021/03/02 04:07:19;;;;;;;349.70;102.70;;;;;;;-1.13;nan;100723.81;2081189;28;20227;-71
2021/03/02 04:08:21;;;;;;;436.70;108.10;;;;;;;-1.16;nan;100726.78;2081190;28;20617;-72
2021/03/02 04:09:24;;;;;;;367.35;104.00;;;;;;;-1.12;nan;100727.28;2079922;28;20600;-72
2021/03/02 04:10:27;;;;;;;398.05;102.15;;;;;;;-1.13;nan;100736.91;2080545;28;20231;-72
2021/03/02 04:11:29;;;;;;;354.02;93.90;;;;;;;-1.05;nan;100733.41;2081311;28;20219;-72
2021/03/02 04:12:37;;;;;;;349.90;97.38;;;;;;;-1.02;nan;100727.81;2096969;28;20805;-72
2021/03/02 04:13:39;;;;;;;340.08;100.65;;;;;;;-1.03;nan;100726.19;2092589;28;20646;-72
2021/03/02 04:14:42;;;;;;;389.05;106.07;;;;;;;-1.04;nan;100732.41;2081108;28;20227;-72
2021/03/02 04:15:45;;;;;;;349.38;100.80;;;;;;;-1.01;nan;100729.44;2081168;28;20223;-71
2021/03/02 04:16:48;;;;;;;396.75;98.57;;;;;;;-1.04;nan;100728.00;2081183;28;20223;-72
2021/03/02 04:17:51;;;;;;;369.73;96.82;;;;;;;-1.00;nan;100720.59;2081053;28;20243;-72
2021/03/02 04:18:53;;;;;;;347.02;96.55;;;;;;;-0.96;nan;100727.09;2080611;28;20250;-72
2021/03/02 04:19:55;;;;;;;367.75;92.28;;;;;;;-0.89;nan;100722.75;2080987;28;20223;-72
2021/03/02 04:20:58;;;;;;;347.10;95.05;;;;;;;-0.91;nan;100725.56;2096594;28;20230;-71
2021/03/02 04:22:00;;;;;;;389.10;91.40;;;;;;;-0.92;nan;100723.13;2096497;28;20278;-72
2021/03/02 04:23:02;;;;;;;366.83;93.35;;;;;;;-0.90;nan;100724.56;2081270;28;20309;-71
2021/03/02 04:24:04;;;;;;;364.52;91.03;;;;;;;-0.93;nan;100724.13;2081033;28;20298;-71
2021/03/02 04:25:07;;;;;;;378.65;91.35;;;;;;;-0.96;nan;100708.75;2081011;28;20238;-71
2021/03/02 04:26:09;;;;;;;360.35;98.35;;;;;;;-0.93;nan;100721.50;2078726;28;20223;-72
2021/03/02 04:27:11;;;;;;;356.88;94.22;;;;;;;-1.02;nan;100722.59;2080123;28;20666;-71
2021/03/02 04:28:13;;;;;;;461.23;97.78;;;;;;;-1.02;nan;100714.72;2080499;28;21206;-71
2021/03/02 04:29:15;;;;;;;489.20;99.22;;;;;;;-1.03;nan;100720.97;2072664;28;20220;-72
2021/03/02 04:30:18;;;;;;;379.25;88.82;;;;;;;-0.98;nan;100722.03;2080300;28;20273;-72
2021/03/02 04:31:20;;;;;;;331.55;96.15;;;;;;;-0.94;nan;100722.50;2096613;28;20233;-72
2021/03/02 04:32:24;;;;;;;441.88;94.57;;;;;;;-0.98;nan;100718.59;2096382;28;20275;-72
2021/03/02 04:33:25;;;;;;;417.88;94.13;;;;;;;-0.93;nan;100716.25;2079929;28;20227;-71
2021/03/02 04:34:27;;;;;;;365.63;87.10;;;;;;;-0.93;nan;100716.25;2080055;28;20254;-72
2021/03/02 04:35:29;;;;;;;499.77;95.90;;;;;;;-0.96;nan;100712.19;2080050;28;20246;-72
2021/03/02 04:36:31;;;;;;;428.08;91.53;;;;;;;-1.00;nan;100716.16;2080364;28;20220;-72
2021/03/02 04:37:33;;;;;;;407.52;93.70;;;;;;;-0.95;nan;100716.44;2080752;28;20223;-72
2021/03/02 04:38:36;;;;;;;421.55;90.07;;;;;;;-0.92;nan;100718.69;2080954;28;20273;-72
2021/03/02 04:39:38;;;;;;;370.33;93.55;;;;;;;-0.99;nan;100711.72;2080058;28;20230;-72
2021/03/02 04:40:40;;;;;;;458.40;100.85;;;;;;;-0.97;nan;100714.97;2080070;28;20701;-72
2021/03/02 04:41:43;;;;;;;444.52;93.35;;;;;;;-0.93;nan;100718.88;2081035;28;20234;-72
2021/03/02 04:42:45;;;;;;;423.80;89.80;;;;;;;-0.87;nan;100726.00;2080782;28;20219;-73
2021/03/02 04:43:47;;;;;;;480.05;99.47;;;;;;;-0.94;nan;100717.25;2096611;28;20297;-72
2021/03/02 04:44:49;;;;;;;424.63;94.57;;;;;;;-0.98;nan;100721.22;2096546;28;20233;-72
2021/03/02 04:45:51;;;;;;;435.15;96.20;;;;;;;-0.99;nan;100717.78;2080888;28;20705;-72
2021/03/02 04:46:52;;;;;;;453.70;95.22;;;;;;;-0.96;nan;100719.22;2080514;28;20226;-73
2021/03/02 04:47:55;;;;;;;467.85;97.47;;;;;;;-0.99;nan;100719.59;2080754;28;20227;-73
2021/03/02 04:48:57;;;;;;;513.78;99.95;;;;;;;-0.93;nan;100719.69;2096637;28;20692;-72
2021/03/02 04:49:59;;;;;;;372.15;96.63;;;;;;;-0.99;nan;100717.78;2096492;28;20813;-72
2021/03/02 04:51:01;;;;;;;463.13;98.68;;;;;;;-0.99;nan;100714.34;2080977;28;20692;-72